Time;durP1;ratioP1;P1;durP2;ratioP2;P2;SDS_P1;SDS_P2;PMS_P1;PMS_P2;Temp;Humidity;BMP_temperature;BMP_pressure;BME280_temperature;BME280_humidity;BME280_pressure;Samples;Min_cycle;Max_cycle;Signal;HPM_P1;HPM_P2
2023/05/01 00:01:37;;;;;;;8.40;2.80;;;;;;;2.64;70.49;97159.45;109037;1266;23140;-82
2023/05/01 00:04:08;;;;;;;5.70;2.90;;;;;;;2.65;70.58;97158.02;109041;1274;25232;-82
2023/05/01 00:06:39;;;;;;;4.70;2.20;;;;;;;2.74;70.57;97161.83;109046;1274;22554;-82
2023/05/01 00:09:10;;;;;;;6.70;2.90;;;;;;;2.80;70.40;97161.25;109035;1274;22552;-82
2023/05/01 00:11:41;;;;;;;4.90;2.80;;;;;;;2.84;70.63;97159.13;109043;1274;25934;-82
2023/05/01 00:14:11;;;;;;;3.90;2.40;;;;;;;2.91;70.65;97154.95;109059;1270;22719;-82
2023/05/01 00:16:42;;;;;;;4.70;2.50;;;;;;;2.93;70.23;97155.85;109049;1274;22555;-82
2023/05/01 00:19:17;;;;;;;5.80;2.80;;;;;;;2.98;70.30;97155.02;109046;1268;24190;-83
2023/05/01 00:21:51;;;;;;;6.50;2.80;;;;;;;3.05;70.14;97155.98;109056;1274;22471;-82
2023/05/01 00:24:22;;;;;;;7.50;3.20;;;;;;;3.11;69.97;97159.60;109034;1274;22714;-82
2023/05/01 00:26:53;;;;;;;5.70;2.90;;;;;;;3.14;69.72;97162.35;109099;1273;22512;-82
2023/05/01 00:29:25;;;;;;;6.40;2.70;;;;;;;3.15;69.57;97163.02;109043;1273;22559;-83
2023/05/01 00:31:56;;;;;;;5.20;2.80;;;;;;;3.15;69.34;97167.30;109055;1273;22811;-82
2023/05/01 00:34:27;;;;;;;5.50;2.60;;;;;;;3.11;69.28;97165.00;109035;1274;22556;-82
2023/05/01 00:36:58;;;;;;;8.10;2.80;;;;;;;3.13;69.38;97170.66;109055;1273;22480;-82
2023/05/01 00:39:29;;;;;;;4.10;2.20;;;;;;;3.16;69.35;97168.73;109048;1274;22521;-82
2023/05/01 00:42:01;;;;;;;4.90;2.90;;;;;;;3.18;69.07;97162.42;109056;1268;22544;-82
2023/05/01 00:44:31;;;;;;;7.40;3.00;;;;;;;3.20;68.91;97161.27;108996;1274;119391;-82
2023/05/01 00:47:03;;;;;;;4.90;2.80;;;;;;;3.18;68.71;97161.14;109001;1268;22464;-82
2023/05/01 00:49:35;;;;;;;4.60;2.30;;;;;;;3.15;68.61;97165.16;109020;1274;22526;-82
2023/05/01 00:52:06;;;;;;;7.30;2.70;;;;;;;3.10;68.75;97166.05;109049;1274;23831;-82
2023/05/01 00:54:37;;;;;;;5.00;2.50;;;;;;;3.03;68.81;97164.75;109020;1274;22604;-83
2023/05/01 00:57:09;;;;;;;4.60;2.40;;;;;;;3.02;68.93;97164.92;109042;1274;24223;-82
2023/05/01 00:59:40;;;;;;;5.70;2.60;;;;;;;3.03;69.28;97167.66;109016;1274;22512;-82
2023/05/01 01:02:11;;;;;;;8.00;2.80;;;;;;;2.96;69.37;97169.41;109045;1267;22596;-82
2023/05/01 01:04:44;;;;;;;4.30;2.50;;;;;;;3.01;69.41;97168.77;109014;1274;25382;-82
2023/05/01 01:07:23;;;;;;;5.20;2.30;;;;;;;3.09;69.28;97170.38;109069;1267;24215;-83
2023/05/01 01:10:03;;;;;;;;;;;;;;;3.10;69.10;97163.64;109088;1274;22644;-82
2023/05/01 01:12:53;;;;;;;4.60;2.40;;;;;;;2.98;69.45;97161.13;109075;1274;24200;-82
2023/05/01 01:15:30;;;;;;;4.40;2.50;;;;;;;2.76;69.73;97162.61;109063;1274;22961;-82
2023/05/01 01:18:09;;;;;;;4.60;2.90;;;;;;;2.63;69.81;97165.71;109073;1268;22469;-82
2023/05/01 01:20:45;;;;;;;4.10;2.30;;;;;;;2.59;70.38;97165.34;109066;1274;22597;-82
2023/05/01 01:23:42;;;;;;;4.10;2.30;;;;;;;2.52;70.46;97165.40;109044;1274;23717;-82
2023/05/01 01:26:20;;;;;;;6.40;2.60;;;;;;;2.28;70.96;97162.82;109080;1269;22507;-82
2023/05/01 01:29:31;;;;;;;5.90;2.50;;;;;;;2.20;71.70;97161.90;109034;1274;22523;-82
2023/05/01 01:32:20;;;;;;;6.70;2.50;;;;;;;2.30;72.04;97166.64;109097;1269;22567;-83
2023/05/01 01:34:55;;;;;;;7.00;2.50;;;;;;;2.22;71.94;97166.65;109099;1273;23935;-82
2023/05/01 01:37:33;;;;;;;3.90;2.50;;;;;;;2.09;72.24;97167.93;109075;1267;22510;-82
2023/05/01 01:40:07;;;;;;;4.90;3.00;;;;;;;2.14;72.74;97168.83;109051;1273;22654;-82
2023/05/01 01:42:41;;;;;;;4.40;3.00;;;;;;;2.30;72.91;97167.23;109103;1266;22511;-82
2023/05/01 01:45:18;;;;;;;4.10;2.30;;;;;;;2.45;72.80;97164.29;109093;1273;25311;-83
2023/05/01 01:47:51;;;;;;;5.70;2.70;;;;;;;2.50;72.67;97163.98;109137;1273;22517;-83
2023/05/01 01:50:25;;;;;;;5.40;2.90;;;;;;;2.50;72.50;97166.65;109056;1273;24133;-82
2023/05/01 01:53:02;;;;;;;5.00;2.70;;;;;;;2.50;72.20;97163.15;109093;1249;23028;-83
2023/05/01 01:55:36;;;;;;;6.50;3.10;;;;;;;2.54;72.16;97160.30;109078;1273;25222;-82
2023/05/01 01:58:09;;;;;;;3.80;2.40;;;;;;;2.58;71.96;97157.02;109068;1273;22481;-82
2023/05/01 02:00:43;;;;;;;5.40;3.00;;;;;;;2.64;72.02;97153.13;109098;1273;22694;-83
2023/05/01 02:03:15;;;;;;;4.70;2.40;;;;;;;2.71;71.97;97151.03;109082;1266;22518;-83
2023/05/01 02:05:47;;;;;;;6.20;2.90;;;;;;;2.71;71.95;97148.90;109055;1272;22564;-83
2023/05/01 02:08:20;;;;;;;4.70;2.60;;;;;;;2.72;71.81;97147.19;109063;1273;22547;-82
2023/05/01 02:10:58;;;;;;;4.50;2.40;;;;;;;2.73;71.74;97143.92;109066;1268;22478;-82
2023/05/01 02:13:31;;;;;;;5.20;2.80;;;;;;;2.71;71.90;97144.75;109113;1273;22525;-82
2023/05/01 02:16:04;;;;;;;7.10;3.20;;;;;;;2.68;71.84;97143.56;109080;1273;24705;-82
2023/05/01 02:18:36;;;;;;;3.80;2.60;;;;;;;2.63;71.63;97142.46;109127;1266;22507;-82
2023/05/01 02:21:09;;;;;;;4.70;2.50;;;;;;;2.55;71.79;97141.02;109081;1270;24318;-82
2023/05/01 02:23:42;;;;;;;5.00;2.60;;;;;;;2.46;71.78;97137.70;109043;1267;22535;-83
2023/05/01 02:26:16;;;;;;;5.10;2.90;;;;;;;2.35;72.09;97136.45;109134;1270;22661;-82
2023/05/01 02:28:47;;;;;;;5.90;2.70;;;;;;;2.30;72.29;97133.88;109121;1273;22562;-82
2023/05/01 02:31:18;;;;;;;6.20;3.10;;;;;;;2.28;72.31;97134.05;109095;1272;24202;-82
2023/05/01 02:33:49;;;;;;;6.00;2.70;;;;;;;2.23;72.37;97134.29;109109;1272;22523;-82
2023/05/01 02:36:20;;;;;;;5.20;2.70;;;;;;;2.09;72.65;97135.38;109072;1271;22540;-82
2023/05/01 02:38:51;;;;;;;5.10;2.90;;;;;;;1.94;72.98;97134.84;109079;1268;22524;-81
2023/05/01 02:41:26;;;;;;;4.20;2.50;;;;;;;1.87;73.62;97131.73;109092;1273;22539;-82
2023/05/01 02:44:02;;;;;;;6.20;2.90;;;;;;;1.96;73.63;97134.86;109079;1264;22821;-82
2023/05/01 02:46:36;;;;;;;4.10;2.50;;;;;;;2.00;73.74;97133.76;109076;1273;22520;-83
2023/05/01 02:49:10;;;;;;;4.80;2.80;;;;;;;2.05;73.81;97132.03;109088;1264;24212;-83
2023/05/01 02:51:42;;;;;;;4.60;2.80;;;;;;;2.04;73.79;97130.42;109106;1272;22686;-82
2023/05/01 02:54:16;;;;;;;6.80;2.70;;;;;;;2.03;73.87;97130.45;109109;1273;22527;-82
2023/05/01 02:56:47;;;;;;;4.70;2.40;;;;;;;2.02;74.07;97126.18;109022;1273;22887;-82
2023/05/01 02:59:18;;;;;;;5.30;2.70;;;;;;;1.97;74.14;97126.61;109076;1267;22546;-82
2023/05/01 03:01:51;;;;;;;4.30;2.50;;;;;;;1.91;74.26;97121.09;109084;1268;22533;-81
2023/05/01 03:04:23;;;;;;;5.40;2.70;;;;;;;1.90;74.14;97122.67;109108;1268;24195;-82
2023/05/01 03:06:55;;;;;;;3.70;2.60;;;;;;;1.75;74.37;97120.98;109098;1270;22525;-82
2023/05/01 03:09:27;;;;;;;4.60;2.90;;;;;;;1.69;75.09;97120.53;109093;1265;22909;-82
2023/05/01 03:11:58;;;;;;;5.80;2.70;;;;;;;1.75;74.98;97117.16;109092;1273;25412;-82
2023/05/01 03:14:29;;;;;;;5.00;2.40;;;;;;;1.78;75.20;97112.52;109121;1273;23956;-82
2023/05/01 03:17:01;;;;;;;6.10;3.00;;;;;;;1.86;75.22;97112.96;109110;1273;22503;-82
2023/05/01 03:19:33;;;;;;;4.60;2.60;;;;;;;1.97;75.23;97110.92;109066;1273;22532;-82
2023/05/01 03:22:06;;;;;;;5.30;2.60;;;;;;;2.04;74.98;97108.14;109092;1270;22511;-82
2023/05/01 03:24:37;;;;;;;4.00;2.50;;;;;;;2.07;74.87;97102.00;109128;1273;22519;-82
2023/05/01 03:27:09;;;;;;;4.60;2.70;;;;;;;2.05;74.78;97104.27;109147;1273;22514;-82
2023/05/01 03:29:40;;;;;;;5.30;2.70;;;;;;;2.01;74.57;97103.45;109106;1253;22531;-82
2023/05/01 03:32:11;;;;;;;5.20;2.70;;;;;;;2.01;75.03;97103.23;109138;1273;22514;-82
2023/05/01 03:34:42;;;;;;;6.70;2.70;;;;;;;2.03;75.46;97100.67;109066;1273;22510;-82
2023/05/01 03:37:13;;;;;;;6.00;3.00;;;;;;;2.13;75.15;97093.04;109125;1273;22537;-82
2023/05/01 03:39:45;;;;;;;6.70;2.90;;;;;;;2.24;74.92;97095.09;109088;1273;22895;-82
2023/05/01 03:42:16;;;;;;;4.30;2.70;;;;;;;2.32;74.80;97094.98;109063;1250;23036;-83
2023/05/01 03:44:47;;;;;;;3.80;2.60;;;;;;;2.31;74.22;97090.88;109137;1270;22557;-82
2023/05/01 03:47:18;;;;;;;4.80;2.60;;;;;;;2.34;74.42;97088.23;109085;1269;22516;-82
2023/05/01 03:49:49;;;;;;;5.50;2.90;;;;;;;2.42;74.47;97085.77;109105;1270;22510;-82
2023/05/01 03:52:20;;;;;;;6.10;2.80;;;;;;;2.53;74.45;97085.30;109122;1271;22645;-82
2023/05/01 03:54:51;;;;;;;5.20;2.40;;;;;;;2.58;74.16;97084.21;109145;1272;22669;-82
2023/05/01 03:57:22;;;;;;;4.20;2.40;;;;;;;2.60;73.95;97077.99;109120;1265;22514;-82
2023/05/01 03:59:53;;;;;;;5.60;2.40;;;;;;;2.59;73.66;97079.13;109126;1250;22521;-82
2023/05/01 04:02:24;;;;;;;7.90;2.80;;;;;;;2.62;73.92;97075.44;109160;1273;23135;-82
2023/05/01 04:04:55;;;;;;;5.40;2.80;;;;;;;2.76;73.81;97078.77;109078;1268;25442;-83
2023/05/01 04:07:28;;;;;;;4.30;2.30;;;;;;;2.86;73.97;97077.83;109218;1266;24154;-83
2023/05/01 04:09:59;;;;;;;5.10;2.40;;;;;;;2.89;74.18;97076.77;109086;1271;25213;-83
2023/05/01 04:12:30;;;;;;;5.70;3.00;;;;;;;2.90;74.30;97081.80;109084;1250;22520;-82
2023/05/01 04:15:02;;;;;;;4.70;2.60;;;;;;;2.85;74.47;97077.35;109102;1271;22472;-82
2023/05/01 04:17:37;;;;;;;6.50;2.70;;;;;;;2.97;74.72;97079.31;109045;1271;22644;-82
2023/05/01 04:20:10;;;;;;;7.40;3.00;;;;;;;2.97;74.95;97081.05;109083;1273;22552;-82
2023/05/01 04:22:41;;;;;;;5.30;2.50;;;;;;;3.08;75.35;97077.66;109120;1272;22624;-82
2023/05/01 04:25:13;;;;;;;6.20;2.70;;;;;;;3.26;75.19;97080.11;109117;1273;22462;-82
2023/05/01 04:27:46;;;;;;;4.90;2.90;;;;;;;3.45;74.94;97079.95;109101;1273;24179;-82
2023/05/01 04:30:17;;;;;;;5.30;2.90;;;;;;;3.75;74.83;97076.90;109082;1273;22518;-82
2023/05/01 04:32:48;;;;;;;5.30;2.80;;;;;;;4.06;74.86;97079.48;109135;1273;22663;-82
2023/05/01 04:35:19;;;;;;;6.20;3.20;;;;;;;4.75;75.35;97081.77;109105;1269;22502;-82
2023/05/01 04:37:50;;;;;;;4.80;2.50;;;;;;;6.69;75.17;97080.88;109105;1273;24249;-82
2023/05/01 04:40:21;;;;;;;5.20;3.00;;;;;;;8.96;72.79;97076.42;109061;1272;22890;-82
2023/05/01 04:42:52;;;;;;;5.50;2.80;;;;;;;11.20;71.84;97071.64;109132;1273;22519;-82
2023/05/01 04:45:23;;;;;;;5.10;3.30;;;;;;;13.57;69.54;97066.87;109116;1273;22485;-82
2023/05/01 04:47:54;;;;;;;5.60;3.20;;;;;;;15.56;64.66;97061.31;109110;1270;23289;-82
2023/05/01 04:50:25;;;;;;;6.60;3.80;;;;;;;16.88;61.36;97061.94;109925;1273;22523;-82
2023/05/01 04:52:56;;;;;;;7.90;3.10;;;;;;;18.54;59.28;97054.48;109165;1272;22518;-82
2023/05/01 04:55:27;;;;;;;6.20;3.30;;;;;;;19.93;55.91;97054.95;109135;1272;22517;-82
2023/05/01 04:57:58;;;;;;;5.10;3.00;;;;;;;21.25;53.59;97053.70;109142;1272;22627;-82
2023/05/01 05:00:29;;;;;;;5.00;2.40;;;;;;;22.36;50.37;97046.98;109122;1270;22525;-82
2023/05/01 05:03:00;;;;;;;5.90;2.60;;;;;;;22.73;47.27;97047.92;109077;1272;22725;-82
2023/05/01 05:05:31;;;;;;;4.90;2.50;;;;;;;23.18;45.36;97050.09;109117;1272;22526;-82
2023/05/01 05:08:03;;;;;;;4.90;2.70;;;;;;;23.38;41.20;97049.27;109138;1272;24177;-82
2023/05/01 05:10:34;;;;;;;4.40;2.40;;;;;;;22.96;40.84;97048.92;109060;1273;22568;-82
2023/05/01 05:13:06;;;;;;;5.20;2.60;;;;;;;23.59;41.26;97045.82;109160;1273;22520;-82
2023/05/01 05:15:37;;;;;;;4.70;2.60;;;;;;;24.38;39.25;97042.13;109077;1273;22518;-83
2023/05/01 05:18:08;;;;;;;4.00;2.50;;;;;;;24.93;38.78;97042.95;109083;1272;22511;-83
2023/05/01 05:20:41;;;;;;;4.70;2.50;;;;;;;25.34;37.66;97045.44;109040;1249;23289;-83
2023/05/01 05:23:12;;;;;;;3.00;2.20;;;;;;;25.87;37.25;97042.82;109062;1270;22549;-83
2023/05/01 05:25:43;;;;;;;4.60;2.50;;;;;;;26.18;35.53;97041.92;109125;1273;22530;-83
2023/05/01 05:28:14;;;;;;;4.70;2.50;;;;;;;26.68;35.41;97044.02;109095;1270;22540;-83
2023/05/01 05:30:45;;;;;;;6.30;2.80;;;;;;;26.91;34.45;97044.95;109078;1273;25417;-83
2023/05/01 05:33:16;;;;;;;3.30;2.40;;;;;;;27.45;33.69;97045.60;109108;1268;22702;-82
2023/05/01 05:35:47;;;;;;;3.80;2.40;;;;;;;27.80;33.41;97042.65;109123;1273;22548;-82
2023/05/01 05:38:19;;;;;;;5.10;2.70;;;;;;;28.69;32.29;97041.99;109132;1270;22515;-83
2023/05/01 05:40:50;;;;;;;5.10;2.40;;;;;;;28.79;30.94;97042.88;109071;1273;22626;-83
2023/05/01 05:43:21;;;;;;;4.90;2.10;;;;;;;29.13;30.70;97040.76;109154;1272;22473;-82
2023/05/01 05:45:56;;;;;;;3.20;2.30;;;;;;;29.88;30.37;97040.35;109108;1273;22552;-83
2023/05/01 05:48:27;;;;;;;5.00;2.50;;;;;;;30.34;29.03;97038.98;109055;1268;23751;-83
2023/05/01 05:50:58;;;;;;;4.90;2.40;;;;;;;30.62;28.32;97035.40;109116;1271;22526;-83
2023/05/01 05:53:29;;;;;;;5.00;2.40;;;;;;;29.77;25.01;97036.05;109137;1273;24020;-83
2023/05/01 05:56:00;;;;;;;5.30;2.30;;;;;;;28.31;25.20;97038.96;109092;1265;22516;-83
2023/05/01 05:58:34;;;;;;;4.60;2.70;;;;;;;28.21;26.04;97042.27;109027;1271;22602;-83
2023/05/01 06:01:08;;;;;;;4.10;2.10;;;;;;;28.95;27.19;97036.74;109083;1265;22536;-83
2023/05/01 06:03:39;;;;;;;4.20;2.50;;;;;;;29.98;26.87;97040.24;109072;1273;22464;-83
2023/05/01 06:06:10;;;;;;;5.90;2.70;;;;;;;30.83;25.42;97044.92;109092;1261;22546;-83
2023/05/01 06:08:45;;;;;;;5.60;2.30;;;;;;;30.29;23.76;97042.41;109089;1270;22538;-83
2023/05/01 06:11:16;;;;;;;4.10;2.40;;;;;;;29.74;23.43;97043.66;109095;1268;22526;-83
2023/05/01 06:13:47;;;;;;;4.50;2.30;;;;;;;30.13;24.09;97045.22;109123;1268;24178;-83
2023/05/01 06:16:18;;;;;;;3.40;2.10;;;;;;;29.52;20.14;97041.27;109096;1271;23744;-83
2023/05/01 06:18:49;;;;;;;3.30;1.90;;;;;;;27.20;20.43;97048.06;109110;1273;22651;-83
2023/05/01 06:21:23;;;;;;;4.60;2.10;;;;;;;26.19;21.48;97048.46;109135;1273;22521;-83
2023/05/01 06:23:54;;;;;;;4.20;2.10;;;;;;;25.51;22.08;97041.74;109102;1273;23859;-83
2023/05/01 06:26:26;;;;;;;4.80;2.80;;;;;;;26.01;23.11;97042.17;109102;1266;22552;-83
2023/05/01 06:28:58;;;;;;;4.60;2.50;;;;;;;26.34;21.59;97040.05;109177;1273;23124;-83
2023/05/01 06:31:29;;;;;;;3.60;2.40;;;;;;;25.98;22.51;97037.94;109187;1269;22458;-83
2023/05/01 06:34:00;;;;;;;6.10;2.40;;;;;;;26.77;22.64;97040.23;109181;1266;22450;-83
2023/05/01 06:36:31;;;;;;;4.00;2.10;;;;;;;26.86;21.42;97040.38;109177;1266;22512;-83
2023/05/01 06:39:02;;;;;;;3.80;2.50;;;;;;;26.94;21.73;97046.46;109122;1272;22465;-82
2023/05/01 06:41:34;;;;;;;3.50;2.30;;;;;;;26.84;21.50;97045.04;109108;1268;22556;-82
2023/05/01 06:44:06;;;;;;;3.40;2.10;;;;;;;26.73;21.57;97047.48;109106;1272;25300;-82
2023/05/01 06:46:37;;;;;;;3.50;1.90;;;;;;;26.72;20.66;97049.11;109108;1273;24865;-82
2023/05/01 06:49:08;;;;;;;4.60;2.40;;;;;;;25.81;21.51;97049.19;109082;1266;24895;-82
2023/05/01 06:51:40;;;;;;;4.40;2.50;;;;;;;26.21;22.20;97042.90;109276;1272;23300;-82
2023/05/01 06:54:10;;;;;;;4.00;2.30;;;;;;;26.31;21.47;97043.71;109093;1272;22538;-81
2023/05/01 06:56:43;;;;;;;3.80;2.30;;;;;;;26.00;20.85;97047.20;109171;1268;22543;-82
2023/05/01 06:59:14;;;;;;;4.10;2.20;;;;;;;25.50;21.82;97044.45;109096;1269;22600;-82
2023/05/01 07:01:46;;;;;;;4.00;2.50;;;;;;;25.35;21.50;97047.14;109111;1268;22511;-82
2023/05/01 07:04:17;;;;;;;5.10;2.60;;;;;;;26.03;22.76;97037.75;109128;1273;22508;-82
2023/05/01 07:06:48;;;;;;;5.30;2.70;;;;;;;26.62;21.03;97040.06;109139;1265;22564;-82
2023/05/01 07:09:19;;;;;;;4.00;2.50;;;;;;;27.02;21.85;97036.59;109142;1265;22515;-82
2023/05/01 07:11:50;;;;;;;3.50;2.00;;;;;;;28.40;22.67;97039.98;109138;1273;23890;-82
2023/05/01 07:14:21;;;;;;;5.70;2.70;;;;;;;28.95;19.10;97044.90;109116;1273;22464;-82
2023/05/01 07:16:53;;;;;;;4.70;2.40;;;;;;;27.08;20.14;97041.52;109131;1271;22507;-83
2023/05/01 07:19:24;;;;;;;4.10;2.30;;;;;;;27.75;22.16;97042.05;109065;1269;23758;-83
2023/05/01 07:21:55;;;;;;;4.00;2.60;;;;;;;29.22;20.56;97040.69;109135;1266;22536;-83
2023/05/01 07:24:26;;;;;;;3.50;2.10;;;;;;;29.23;21.14;97033.43;109139;1266;22591;-83
2023/05/01 07:26:58;;;;;;;4.60;2.60;;;;;;;30.57;21.27;97038.22;109182;1272;24935;-84
2023/05/01 07:29:29;;;;;;;3.90;2.20;;;;;;;31.82;20.93;97037.02;109109;1273;22552;-83
2023/05/01 07:32:00;;;;;;;2.60;1.80;;;;;;;32.02;17.44;97045.71;109104;1273;22782;-83
2023/05/01 07:34:32;;;;;;;3.40;2.00;;;;;;;29.31;17.41;97047.19;109166;1273;22558;-84
2023/05/01 07:37:03;;;;;;;4.50;2.00;;;;;;;27.87;18.57;97049.23;109149;1268;22524;-83
2023/05/01 07:39:34;;;;;;;3.50;2.10;;;;;;;27.05;19.73;97037.02;109164;1271;22592;-84
2023/05/01 07:42:05;;;;;;;3.00;1.80;;;;;;;28.30;20.42;97040.48;109132;1273;22913;-84
2023/05/01 07:44:37;;;;;;;3.70;1.80;;;;;;;28.49;19.58;97035.55;109073;1273;22565;-83
2023/05/01 07:47:08;;;;;;;6.00;2.20;;;;;;;28.60;18.42;97039.63;109101;1271;24729;-84
2023/05/01 07:49:39;;;;;;;4.10;2.10;;;;;;;28.70;20.16;97038.23;109173;1269;22626;-84
2023/05/01 07:52:10;;;;;;;4.60;1.90;;;;;;;29.28;18.47;97034.08;109160;1273;22528;-84
2023/05/01 07:54:41;;;;;;;3.40;1.90;;;;;;;29.65;19.82;97032.62;109033;1267;22529;-84
2023/05/01 07:57:12;;;;;;;4.10;1.70;;;;;;;30.06;18.01;97032.80;109044;1273;22521;-84
2023/05/01 07:59:43;;;;;;;1.90;1.70;;;;;;;29.14;17.37;97039.58;109115;1270;22537;-83
2023/05/01 08:02:16;;;;;;;3.90;1.80;;;;;;;27.53;18.16;97043.63;109166;1273;22481;-84
2023/05/01 08:04:47;;;;;;;3.20;1.90;;;;;;;28.60;20.11;97040.42;109067;1266;25411;-84
2023/05/01 08:07:19;;;;;;;3.70;2.00;;;;;;;30.68;19.18;97038.78;109072;1258;22596;-84
2023/05/01 08:09:49;;;;;;;2.70;1.70;;;;;;;31.24;17.62;97040.90;109184;1265;22508;-84
2023/05/01 08:12:20;;;;;;;4.10;1.70;;;;;;;31.49;18.33;97037.56;109086;1273;25442;-84
2023/05/01 08:14:51;;;;;;;1.90;1.60;;;;;;;32.35;18.10;97038.42;109171;1272;22535;-84
2023/05/01 08:17:22;;;;;;;2.80;1.70;;;;;;;33.32;18.24;97033.23;109165;1272;23273;-84
2023/05/01 08:19:55;;;;;;;3.10;1.60;;;;;;;33.93;16.18;97033.05;109197;1272;22514;-84
2023/05/01 08:22:26;;;;;;;3.70;2.00;;;;;;;32.83;16.53;97035.77;109185;1272;23743;-84
2023/05/01 08:24:57;;;;;;;3.10;1.80;;;;;;;32.66;16.51;97038.42;109142;1265;22520;-84
2023/05/01 08:27:28;;;;;;;4.10;1.90;;;;;;;32.88;16.74;97035.70;109089;1273;22511;-84
2023/05/01 08:30:00;;;;;;;3.40;2.30;;;;;;;33.03;15.52;97039.17;109105;1265;22514;-84
2023/05/01 08:32:31;;;;;;;4.50;2.10;;;;;;;30.84;15.69;97035.80;109137;1273;22593;-84
2023/05/01 08:35:02;;;;;;;6.60;2.80;;;;;;;30.46;17.20;97035.73;109123;1273;24276;-83
2023/05/01 08:37:33;;;;;;;4.30;2.10;;;;;;;31.53;17.93;97038.06;109117;1273;22535;-84
2023/05/01 08:40:09;;;;;;;14.80;6.70;;;;;;;32.40;16.24;97038.38;109092;1273;25412;-84
2023/05/01 08:42:40;;;;;;;11.80;4.40;;;;;;;31.82;15.61;97036.61;109131;1273;23536;-84
2023/05/01 08:45:13;;;;;;;4.60;2.40;;;;;;;30.48;17.16;97033.91;109200;1269;22501;-83
2023/05/01 08:47:45;;;;;;;6.00;2.80;;;;;;;31.42;18.42;97034.30;109088;1272;22526;-84
2023/05/01 08:50:18;;;;;;;5.30;3.10;;;;;;;32.68;16.67;97034.48;109096;1251;23521;-84
2023/05/01 08:52:51;;;;;;;3.80;2.20;;;;;;;31.59;16.79;97035.20;109086;1269;23527;-84
2023/05/01 08:55:23;;;;;;;5.00;2.60;;;;;;;31.96;16.91;97037.60;109084;1273;24330;-83
2023/05/01 08:57:55;;;;;;;5.80;2.30;;;;;;;31.34;17.08;97032.14;109125;1273;24561;-81
2023/05/01 09:00:28;;;;;;;3.30;1.90;;;;;;;31.36;16.95;97031.11;109118;1273;22517;-81
2023/05/01 09:03:04;;;;;;;4.20;2.10;;;;;;;31.24;16.70;97025.33;109091;1272;23795;-82
2023/05/01 09:05:36;;;;;;;4.70;2.20;;;;;;;30.47;18.26;97028.60;109276;1273;22832;-82
2023/05/01 09:08:07;;;;;;;4.70;2.00;;;;;;;31.45;18.98;97020.30;109318;1273;25412;-82
2023/05/01 09:10:42;;;;;;;4.60;2.10;;;;;;;31.86;18.33;97021.51;109287;1272;23850;-81
2023/05/01 09:13:14;;;;;;;5.90;1.70;;;;;;;31.39;18.85;97014.10;109139;1272;22543;-80
2023/05/01 09:15:48;;;;;;;5.20;2.30;;;;;;;30.82;18.45;97015.27;109113;1273;22524;-79
2023/05/01 09:18:23;;;;;;;10.50;2.80;;;;;;;30.19;19.39;97012.29;109114;1273;23703;-79
2023/05/01 09:20:54;;;;;;;3.60;2.20;;;;;;;28.48;18.34;97012.77;109173;1272;22779;-79
2023/05/01 09:23:25;;;;;;;10.50;3.30;;;;;;;24.54;21.12;97011.19;109141;1272;22479;-79
2023/05/01 09:25:57;;;;;;;5.80;2.60;;;;;;;22.75;22.97;97012.36;109133;1272;25268;-79
2023/05/01 09:28:45;;;;;;;5.00;2.60;;;;;;;20.90;24.41;97008.23;109181;1272;22516;-79
2023/05/01 09:31:27;;;;;;;4.20;2.00;;;;;;;19.88;26.55;97004.08;109061;1272;23259;-79
2023/05/01 09:34:00;;;;;;;6.60;2.80;;;;;;;19.54;26.39;97007.61;109054;1271;22557;-80
2023/05/01 09:36:33;;;;;;;4.80;2.90;;;;;;;18.71;27.83;97005.05;109089;1274;24162;-80
2023/05/01 09:39:04;;;;;;;7.40;3.30;;;;;;;18.19;28.75;97003.69;109024;1270;22547;-79
2023/05/01 09:41:35;;;;;;;4.10;2.00;;;;;;;18.02;29.37;97005.79;109153;1273;23478;-83
2023/05/01 09:44:18;;;;;;;4.30;2.10;;;;;;;17.88;29.49;96998.84;109092;1266;22536;-83
2023/05/01 09:46:49;;;;;;;7.00;2.70;;;;;;;17.64;29.82;96992.77;109042;1273;22548;-83
2023/05/01 09:49:21;;;;;;;5.40;2.20;;;;;;;17.64;30.64;96988.86;109126;1251;25411;-83
2023/05/01 09:52:10;;;;;;;3.70;1.90;;;;;;;18.02;31.07;96990.13;109161;1251;25288;-82
2023/05/01 09:54:41;;;;;;;6.10;2.30;;;;;;;18.35;30.23;96990.78;109135;1270;22511;-83
2023/05/01 09:57:12;;;;;;;3.80;1.90;;;;;;;17.78;29.78;96985.12;109170;1272;23058;-80
2023/05/01 09:59:43;;;;;;;6.70;2.60;;;;;;;17.22;30.39;96977.14;109179;1272;24501;-82
2023/05/01 10:02:29;;;;;;;5.00;2.40;;;;;;;16.96;31.02;96975.05;109227;1269;22518;-81
2023/05/01 10:05:02;;;;;;;3.50;2.00;;;;;;;16.94;31.63;96971.74;109122;1272;22576;-82
2023/05/01 10:07:34;;;;;;;3.30;2.00;;;;;;;16.90;31.12;96972.00;109133;1272;24214;-82
2023/05/01 10:10:21;;;;;;;4.80;2.40;;;;;;;16.62;31.51;96975.66;109175;1272;22720;-83
2023/05/01 10:12:52;;;;;;;6.30;2.50;;;;;;;16.77;31.74;96974.05;109029;1272;22513;-82
2023/05/01 10:15:35;;;;;;;2.20;1.50;;;;;;;17.06;32.59;96967.65;109028;1274;22473;-82
2023/05/01 10:18:07;;;;;;;6.10;2.30;;;;;;;17.19;31.04;96966.98;108995;1274;24330;-81
2023/05/01 10:20:38;;;;;;;4.90;1.90;;;;;;;17.06;32.06;96964.65;109030;1274;22527;-83
2023/05/01 10:23:11;;;;;;;5.90;2.00;;;;;;;17.07;31.90;96963.55;109011;1273;22523;-82
2023/05/01 10:25:44;;;;;;;5.30;2.00;;;;;;;17.38;32.45;96957.82;109044;1273;22561;-83
2023/05/01 10:28:15;;;;;;;3.50;2.00;;;;;;;17.69;31.64;96956.19;109072;1267;22518;-82
2023/05/01 10:30:48;;;;;;;4.10;1.90;;;;;;;17.47;30.99;96952.69;109023;1273;22664;-82
2023/05/01 10:33:20;;;;;;;4.40;1.80;;;;;;;17.47;30.67;96950.05;109077;1273;22547;-82
2023/05/01 10:36:32;;;;;;;3.60;1.90;;;;;;;17.44;30.61;96950.20;109094;1267;22531;-82
2023/05/01 10:39:04;;;;;;;4.90;2.00;;;;;;;17.38;30.63;96943.82;108997;1273;22626;-83
2023/05/01 10:42:03;;;;;;;3.20;1.90;;;;;;;17.51;30.65;96942.48;109077;1267;57919;-83
2023/05/01 10:44:39;;;;;;;3.40;1.80;;;;;;;17.55;30.72;96937.44;109076;1267;22572;-83
2023/05/01 10:47:47;;;;;;;7.90;2.70;;;;;;;17.57;30.74;96936.52;109056;1270;22553;-84
2023/05/01 10:50:18;;;;;;;5.00;2.20;;;;;;;17.77;31.34;96937.68;109139;1264;22547;-82
2023/05/01 10:53:19;;;;;;;4.40;2.00;;;;;;;18.05;31.23;96933.08;109073;1270;22568;-79
2023/05/01 10:55:50;;;;;;;5.90;2.20;;;;;;;18.14;29.91;96933.34;109099;1270;22543;-80
2023/05/01 10:58:57;;;;;;;3.10;2.00;;;;;;;17.93;29.72;96926.25;109152;1270;22565;-81
2023/05/01 11:01:34;;;;;;;4.90;2.20;;;;;;;17.72;29.39;96924.31;108623;1274;23168;-81
2023/05/01 11:04:08;;;;;;;5.30;2.00;;;;;;;17.31;30.22;96920.67;109038;1273;22853;-80
2023/05/01 11:06:59;;;;;;;4.20;2.00;;;;;;;17.15;30.12;96922.95;109104;1273;24403;-81
2023/05/01 11:09:40;;;;;;;3.00;1.80;;;;;;;17.25;30.30;96921.48;109127;1250;22884;-81
2023/05/01 11:12:13;;;;;;;3.90;2.00;;;;;;;17.21;29.64;96914.32;109078;1273;22475;-81
2023/05/01 11:15:06;;;;;;;4.00;2.10;;;;;;;17.15;30.17;96914.05;109075;1268;22512;-80
2023/05/01 11:17:51;;;;;;;3.80;1.90;;;;;;;17.51;31.32;96909.02;109079;1273;22473;-80
2023/05/01 11:20:49;;;;;;;2.60;1.90;;;;;;;17.88;31.08;96909.58;109123;1270;25238;-80
2023/05/01 11:23:22;;;;;;;3.80;2.10;;;;;;;18.20;31.24;96905.66;108900;1273;22615;-80
2023/05/01 11:26:05;;;;;;;5.30;1.80;;;;;;;17.98;29.87;96899.45;109075;1270;23819;-81
2023/05/01 11:28:38;;;;;;;5.40;2.00;;;;;;;17.87;30.97;96900.41;109107;1273;23759;-81
2023/05/01 11:31:10;;;;;;;4.10;1.70;;;;;;;18.09;30.87;96895.30;109070;1267;22603;-81
2023/05/01 11:33:41;;;;;;;3.80;1.70;;;;;;;18.28;30.43;96890.80;109075;1273;23411;-81
2023/05/01 11:36:12;;;;;;;6.60;2.70;;;;;;;18.05;30.33;96887.54;109059;1273;23746;-81
2023/05/01 11:38:52;;;;;;;4.20;2.10;;;;;;;18.06;31.77;96884.08;109084;1268;23330;-81
2023/05/01 11:41:24;;;;;;;3.60;1.50;;;;;;;18.36;31.54;96881.93;109098;1272;22548;-82
2023/05/01 11:43:57;;;;;;;3.60;1.90;;;;;;;18.56;31.38;96876.45;109074;1268;22600;-83
2023/05/01 11:46:29;;;;;;;3.60;1.90;;;;;;;18.72;31.28;96871.76;109058;1272;22561;-83
2023/05/01 11:49:02;;;;;;;3.00;2.00;;;;;;;18.83;30.64;96868.31;109165;1273;22792;-83
2023/05/01 11:51:33;;;;;;;3.30;1.90;;;;;;;18.84;30.00;96869.06;109200;1267;88661;-84
2023/05/01 11:54:06;;;;;;;2.60;1.70;;;;;;;18.53;29.51;96867.27;109114;1267;22546;-83
2023/05/01 11:56:39;;;;;;;3.80;2.10;;;;;;;18.27;29.45;96865.86;109058;1266;25413;-81
2023/05/01 11:59:15;;;;;;;4.20;2.20;;;;;;;18.30;31.21;96862.31;109060;1273;22616;-80